createdAt,value
2018-11-27T00:02:47.364Z,97888.44
2018-11-27T00:05:51.565Z,97888.70
2018-11-27T00:08:55.687Z,97886.47
2018-11-27T00:11:59.805Z,97887.75
2018-11-27T00:15:04.769Z,97887.88
2018-11-27T00:18:08.893Z,97890.25
2018-11-27T00:21:13.158Z,97892.48
2018-11-27T00:24:17.269Z,97895.65
2018-11-27T00:27:21.389Z,97901.02
2018-11-27T00:30:25.497Z,97904.14
2018-11-27T00:33:29.625Z,97906.30
2018-11-27T00:36:33.754Z,97906.50
2018-11-27T00:39:37.873Z,97906.45
2018-11-27T00:42:42.016Z,97912.08
2018-11-27T00:45:46.158Z,97917.36
2018-11-27T00:48:50.260Z,97916.02
2018-11-27T00:51:54.477Z,97920.66
2018-11-27T00:54:58.741Z,97923.31
2018-11-27T00:58:02.713Z,97920.14
2018-11-27T01:01:06.874Z,97930.95
2018-11-27T01:04:11.001Z,97937.59
2018-11-27T01:07:15.128Z,97937.38
2018-11-27T01:10:23.716Z,97945.92
2018-11-27T01:13:27.833Z,97949.67
2018-11-27T01:16:31.963Z,97956.13
2018-11-27T01:19:36.081Z,97956.17
2018-11-27T01:22:40.213Z,97961.33
2018-11-27T01:25:44.337Z,97967.67
2018-11-27T01:28:48.461Z,97967.16
2018-11-27T01:31:52.605Z,97969.09
2018-11-27T01:34:56.721Z,97967.34
2018-11-27T01:38:00.848Z,97966.84
2018-11-27T01:41:04.965Z,97968.83
2018-11-27T01:44:09.089Z,97966.94
2018-11-27T01:47:13.205Z,97970.48
2018-11-27T01:50:18.300Z,97972.16
2018-11-27T01:53:22.416Z,97972.12
2018-11-27T01:56:26.537Z,97973.55
2018-11-27T01:59:30.657Z,97977.84
2018-11-27T02:02:34.833Z,97981.11
2018-11-27T02:05:38.949Z,97981.72
2018-11-27T02:08:43.072Z,97983.70
2018-11-27T02:11:47.293Z,97980.28
2018-11-27T02:14:51.366Z,97981.83
2018-11-27T02:17:55.649Z,97986.11
2018-11-27T02:20:59.788Z,97990.25
2018-11-27T02:24:03.894Z,97991.34
2018-11-27T02:27:08.015Z,97990.56
2018-11-27T02:30:14.410Z,97992.91
2018-11-27T02:33:18.525Z,97992.86
2018-11-27T02:36:22.651Z,97989.39
2018-11-27T02:39:26.773Z,97990.72
2018-11-27T02:42:30.913Z,97993.31
2018-11-27T02:45:35.021Z,97989.91
2018-11-27T02:48:39.149Z,97995.92
2018-11-27T02:51:43.414Z,98002.45
2018-11-27T02:54:47.535Z,98001.69
2018-11-27T02:57:51.658Z,98004.10
2018-11-27T03:00:55.776Z,97998.83
2018-11-27T03:03:59.962Z,97999.64
2018-11-27T03:07:04.087Z,98007.26
2018-11-27T03:10:15.118Z,98004.31
2018-11-27T03:13:19.240Z,98004.07
2018-11-27T03:16:23.359Z,98004.34
2018-11-27T03:19:27.479Z,98013.64
2018-11-27T03:22:31.596Z,98009.95
2018-11-27T03:25:36.679Z,98006.66
2018-11-27T03:28:40.794Z,98009.66
2018-11-27T03:31:44.929Z,98014.47
2018-11-27T03:34:49.077Z,98010.84
2018-11-27T03:37:53.249Z,98014.58
2018-11-27T03:40:57.321Z,98016.86
2018-11-27T03:44:01.438Z,98021.04
2018-11-27T03:47:05.773Z,98022.42
2018-11-27T03:50:30.798Z,98029.25
2018-11-27T03:53:34.892Z,98029.55
2018-11-27T03:56:39.078Z,98028.23
2018-11-27T03:59:43.184Z,98034.94
2018-11-27T04:02:56.130Z,98037.59
2018-11-27T04:06:00.213Z,98036.47
2018-11-27T04:09:05.109Z,98035.63
2018-11-27T04:12:09.201Z,98040.58
2018-11-27T04:15:13.845Z,98041.83
2018-11-27T04:18:17.938Z,98048.55
2018-11-27T04:21:22.042Z,98053.41
2018-11-27T04:24:26.150Z,98050.76
2018-11-27T04:27:30.254Z,98052.31
2018-11-27T04:30:34.371Z,98053.88
2018-11-27T04:33:38.474Z,98055.31
2018-11-27T04:36:42.574Z,98052.63
2018-11-27T04:39:46.667Z,98060.57
2018-11-27T04:42:50.789Z,98063.66
2018-11-27T04:45:54.870Z,98070.82
2018-11-27T04:48:58.971Z,98065.23
2018-11-27T04:52:03.113Z,98073.28
2018-11-27T04:55:09.637Z,98076.11
2018-11-27T04:58:13.750Z,98085.16
2018-11-27T05:01:17.845Z,98082.94
2018-11-27T05:04:21.945Z,98084.10
2018-11-27T05:07:26.037Z,98087.33
2018-11-27T05:10:30.133Z,98096.60
2018-11-27T05:13:34.241Z,98092.83
2018-11-27T05:16:38.368Z,98094.16
2018-11-27T05:19:42.474Z,98096.11
2018-11-27T05:22:46.567Z,98093.91
2018-11-27T05:25:50.729Z,98100.15
2018-11-27T05:28:54.841Z,98105.08
2018-11-27T05:31:58.936Z,98108.83
2018-11-27T05:35:03.082Z,98116.79
2018-11-27T05:38:07.521Z,98111.10
2018-11-27T05:41:11.669Z,98116.41
2018-11-27T05:44:15.801Z,98115.71
2018-11-27T05:47:19.943Z,98121.02
2018-11-27T05:50:24.073Z,98121.41
2018-11-27T05:53:28.205Z,98124.63
2018-11-27T05:56:32.345Z,98125.28
2018-11-27T05:59:36.539Z,98137.96
2018-11-27T06:02:40.782Z,98145.41
2018-11-27T06:05:44.939Z,98143.03
2018-11-27T06:08:49.077Z,98140.11
2018-11-27T06:11:53.213Z,98147.14
2018-11-27T06:14:57.356Z,98152.33
2018-11-27T06:18:03.544Z,98158.13
2018-11-27T06:21:07.689Z,98163.50
2018-11-27T06:24:11.828Z,98166.89
2018-11-27T06:27:15.964Z,98168.45
2018-11-27T06:30:24.493Z,98167.63
2018-11-27T06:33:28.654Z,98173.43
2018-11-27T06:36:32.772Z,98173.84
2018-11-27T06:39:36.934Z,98174.66
2018-11-27T06:42:41.066Z,98177.70
2018-11-27T06:45:45.405Z,98182.60
2018-11-27T06:48:49.549Z,98179.84
2018-11-27T06:51:53.640Z,98189.27
2018-11-27T06:54:57.725Z,98191.50
2018-11-27T06:58:01.866Z,98191.62
2018-11-27T07:01:06.074Z,98192.23
2018-11-27T07:04:10.161Z,98209.31
2018-11-27T07:07:14.268Z,98205.39
2018-11-27T07:10:32.200Z,98209.50
2018-11-27T07:13:36.294Z,98217.04
2018-11-27T07:16:40.392Z,98228.27
2018-11-27T07:19:44.477Z,98222.44
2018-11-27T07:22:48.586Z,98235.73
2018-11-27T07:25:52.694Z,98236.00
2018-11-27T07:28:56.794Z,98241.80
2018-11-27T07:32:00.901Z,98244.36
2018-11-27T07:35:06.418Z,98251.94
2018-11-27T07:38:10.525Z,98251.19
2018-11-27T07:41:14.612Z,98255.17
2018-11-27T07:44:18.717Z,98265.13
2018-11-27T07:47:22.813Z,98270.77
2018-11-27T07:50:26.903Z,98270.87
2018-11-27T07:53:31.001Z,98272.53
2018-11-27T07:56:35.122Z,98270.45
2018-11-27T07:59:39.214Z,98277.11
2018-11-27T08:02:44.743Z,98283.06
2018-11-27T08:05:48.829Z,98291.09
2018-11-27T08:08:52.926Z,98297.50
2018-11-27T08:11:57.047Z,98302.68
2018-11-27T08:15:01.142Z,98311.02
2018-11-27T08:18:05.241Z,98309.89
2018-11-27T08:21:09.337Z,98307.37
2018-11-27T08:24:13.429Z,98306.45
2018-11-27T08:27:17.533Z,98315.66
2018-11-27T08:30:22.717Z,98316.66
2018-11-27T08:33:26.829Z,98323.92
2018-11-27T08:36:30.945Z,98328.95
2018-11-27T08:39:35.038Z,98325.97
2018-11-27T08:42:39.197Z,98330.97
2018-11-27T08:45:43.298Z,98332.19
2018-11-27T08:48:47.397Z,98337.84
2018-11-27T08:51:51.496Z,98349.34
2018-11-27T08:54:55.585Z,98354.30
2018-11-27T08:58:00.945Z,98358.52
2018-11-27T09:01:05.193Z,98355.35
2018-11-27T09:04:09.593Z,98359.80
2018-11-27T09:07:13.764Z,98364.41
2018-11-27T09:10:19.667Z,98360.19
2018-11-27T09:13:23.889Z,98359.03
2018-11-27T09:16:27.972Z,98360.42
2018-11-27T09:19:32.065Z,98362.44
2018-11-27T09:22:36.298Z,98367.89
2018-11-27T09:25:40.386Z,98366.78
2018-11-27T09:28:44.492Z,98373.09
2018-11-27T09:31:48.593Z,98381.16
2018-11-27T09:34:52.844Z,98382.09
2018-11-27T09:37:57.080Z,98385.48
2018-11-27T09:41:01.210Z,98393.70
2018-11-27T09:44:06.683Z,98397.28
2018-11-27T09:47:10.813Z,98394.28
2018-11-27T09:50:15.829Z,98396.70
2018-11-27T09:53:19.965Z,98397.05
2018-11-27T09:56:24.196Z,98397.55
2018-11-27T09:59:28.338Z,98389.71
2018-11-27T10:02:32.477Z,98394.14
2018-11-27T10:05:36.769Z,98390.48
2018-11-27T10:08:40.897Z,98389.80
2018-11-27T10:11:45.070Z,98389.41
2018-11-27T10:14:49.204Z,98392.37
2018-11-27T10:17:57.901Z,98389.81
2018-11-27T10:21:02.037Z,98385.19
2018-11-27T10:24:07.930Z,98393.02
2018-11-27T10:27:10.872Z,98392.39
2018-11-27T10:30:29.905Z,98394.33
2018-11-27T10:33:34.050Z,98392.63
2018-11-27T10:36:38.186Z,98396.87
2018-11-27T10:39:42.346Z,98391.61
2018-11-27T10:42:46.528Z,98393.69
2018-11-27T10:45:50.645Z,98396.77
2018-11-27T10:48:54.786Z,98398.22
2018-11-27T10:51:58.924Z,98400.06
2018-11-27T10:55:03.097Z,98402.91
2018-11-27T10:58:08.609Z,98401.39
2018-11-27T11:01:17.089Z,98397.98
2018-11-27T11:04:21.229Z,98405.47
2018-11-27T11:07:25.411Z,98406.63
2018-11-27T11:10:29.533Z,98407.48
2018-11-27T11:13:33.681Z,98412.64
2018-11-27T11:16:37.865Z,98417.44
2018-11-27T11:19:41.993Z,98418.82
2018-11-27T11:22:46.141Z,98421.33
2018-11-27T11:25:50.294Z,98420.89
2018-11-27T11:28:54.441Z,98424.30
2018-11-27T11:31:58.565Z,98421.49
2018-11-27T11:35:02.653Z,98429.95
2018-11-27T11:38:07.307Z,98425.48
2018-11-27T11:41:11.436Z,98422.95
2018-11-27T11:44:15.544Z,98430.27
2018-11-27T11:47:19.644Z,98433.59
2018-11-27T11:50:31.005Z,98438.73
2018-11-27T11:53:35.104Z,98436.67
2018-11-27T11:56:39.199Z,98434.13
2018-11-27T11:59:43.300Z,98431.89
2018-11-27T12:02:47.471Z,98431.47
2018-11-27T12:05:51.533Z,98437.55
2018-11-27T12:08:55.651Z,98439.90
2018-11-27T12:11:59.738Z,98438.36
2018-11-27T12:15:03.946Z,98437.42
2018-11-27T12:18:09.350Z,98439.27
2018-11-27T12:21:13.445Z,98446.86
2018-11-27T12:24:17.553Z,98449.28
2018-11-27T12:27:21.637Z,98457.34
2018-11-27T12:30:27.483Z,98456.68
2018-11-27T12:33:31.585Z,98451.88
2018-11-27T12:36:35.689Z,98456.28
2018-11-27T12:39:39.793Z,98456.77
2018-11-27T12:42:43.975Z,98452.53
2018-11-27T12:45:48.080Z,98463.51
2018-11-27T12:48:52.172Z,98460.37
2018-11-27T12:51:56.277Z,98460.16
2018-11-27T12:55:00.440Z,98465.48
2018-11-27T12:58:04.962Z,98467.38
2018-11-27T13:01:09.622Z,98469.66
2018-11-27T13:04:13.151Z,98473.44
2018-11-27T13:07:17.242Z,98470.11
2018-11-27T13:10:21.361Z,98470.49
2018-11-27T13:13:25.453Z,98478.73
2018-11-27T13:16:29.548Z,98474.16
2018-11-27T13:19:33.649Z,98478.39
2018-11-27T13:22:37.840Z,98478.31
2018-11-27T13:25:42.053Z,98473.48
2018-11-27T13:28:46.140Z,98481.95
2018-11-27T13:31:50.257Z,98484.11
2018-11-27T13:34:54.361Z,98488.31
2018-11-27T13:37:58.448Z,98494.39
2018-11-27T13:41:02.565Z,98497.42
2018-11-27T13:44:06.658Z,98498.27
2018-11-27T13:47:10.762Z,98492.86
2018-11-27T13:50:16.951Z,98498.48
2018-11-27T13:53:21.054Z,98496.87
2018-11-27T13:56:25.142Z,98498.62
2018-11-27T13:59:29.250Z,98496.12
2018-11-27T14:02:33.351Z,98499.13
2018-11-27T14:05:37.549Z,98501.58
2018-11-27T14:08:41.654Z,98507.69
2018-11-27T14:11:45.765Z,98508.63
2018-11-27T14:14:49.869Z,98510.13
2018-11-27T14:17:55.621Z,98510.70
2018-11-27T14:20:59.716Z,98516.19
2018-11-27T14:24:03.812Z,98519.43
2018-11-27T14:27:07.928Z,98523.45
2018-11-27T14:30:21.776Z,98517.94
2018-11-27T14:33:25.879Z,98524.00
2018-11-27T14:36:29.986Z,98532.08
2018-11-27T14:39:34.104Z,98529.52
2018-11-27T14:42:38.213Z,98534.84
2018-11-27T14:45:42.389Z,98533.67
2018-11-27T14:48:46.567Z,98539.73
2018-11-27T14:51:50.687Z,98547.43
2018-11-27T14:54:54.793Z,98549.51
2018-11-27T14:57:58.917Z,98548.53
2018-11-27T15:01:03.032Z,98547.77
2018-11-27T15:04:07.121Z,98550.67
2018-11-27T15:07:11.219Z,98556.84
2018-11-27T15:10:15.318Z,98571.12
2018-11-27T15:13:19.405Z,98572.41
2018-11-27T15:16:23.511Z,98573.75
2018-11-27T15:19:27.621Z,98573.28
2018-11-27T15:22:31.737Z,98569.75
2018-11-27T15:25:36.415Z,98576.94
2018-11-27T15:28:40.597Z,98581.70
2018-11-27T15:31:44.710Z,98587.22
2018-11-27T15:34:48.867Z,98595.70
2018-11-27T15:37:53.009Z,98593.41
2018-11-27T15:40:57.146Z,98598.21
2018-11-27T15:44:01.293Z,98600.20
2018-11-27T15:47:06.375Z,98597.82
2018-11-27T15:50:10.885Z,98601.60
2018-11-27T15:53:15.021Z,98603.05
2018-11-27T15:56:19.170Z,98602.47
2018-11-27T15:59:23.297Z,98613.91
2018-11-27T16:02:27.476Z,98611.73
2018-11-27T16:05:31.627Z,98619.50
2018-11-27T16:08:35.764Z,98624.07
2018-11-27T16:11:40.246Z,98628.16
2018-11-27T16:14:44.385Z,98631.09
2018-11-27T16:17:49.795Z,98628.75
2018-11-27T16:20:53.925Z,98638.48
2018-11-27T16:23:58.168Z,98634.19
2018-11-27T16:27:02.317Z,98640.47
2018-11-27T16:30:28.420Z,98640.55
2018-11-27T16:33:32.555Z,98643.56
2018-11-27T16:36:36.674Z,98647.62
2018-11-27T16:39:40.777Z,98654.57
2018-11-27T16:42:44.909Z,98651.09
2018-11-27T16:45:49.002Z,98649.92
2018-11-27T16:48:53.103Z,98659.43
2018-11-27T16:51:57.196Z,98656.23
2018-11-27T16:55:01.294Z,98666.34
2018-11-27T16:58:05.659Z,98672.84
2018-11-27T17:01:09.762Z,98673.81
2018-11-27T17:04:13.924Z,98675.80
2018-11-27T17:07:18.025Z,98674.03
2018-11-27T17:10:22.466Z,98679.21
2018-11-27T17:13:26.571Z,98680.67
2018-11-27T17:16:30.685Z,98679.27
2018-11-27T17:19:34.808Z,98677.95
2018-11-27T17:22:38.923Z,98682.72
2018-11-27T17:25:43.032Z,98679.25
2018-11-27T17:28:47.215Z,98692.99
2018-11-27T17:31:51.305Z,98686.73
2018-11-27T17:34:55.458Z,98692.30
2018-11-27T17:37:59.605Z,98691.30
2018-11-27T17:41:03.749Z,98699.77
2018-11-27T17:44:13.710Z,98701.94
2018-11-27T17:47:17.865Z,98703.69
2018-11-27T17:50:22.046Z,98710.20
2018-11-27T17:53:26.201Z,98708.48
2018-11-27T17:56:30.332Z,98709.15
2018-11-27T17:59:34.481Z,98707.84
2018-11-27T18:02:40.635Z,98715.06
2018-11-27T18:05:44.900Z,98716.84
2018-11-27T18:08:49.034Z,98716.39
2018-11-27T18:11:53.253Z,98709.02
2018-11-27T18:14:57.462Z,98708.27
2018-11-27T18:18:01.687Z,98706.20
2018-11-27T18:21:06.197Z,98709.39
2018-11-27T18:24:10.505Z,98713.22
2018-11-27T18:27:14.840Z,98719.63
2018-11-27T18:30:21.152Z,98713.90
2018-11-27T18:33:25.323Z,98717.42
2018-11-27T18:36:29.571Z,98713.48
2018-11-27T18:39:33.853Z,98713.61
2018-11-27T18:42:38.123Z,98718.83
2018-11-27T18:45:42.425Z,98729.72
2018-11-27T18:48:46.645Z,98732.52
2018-11-27T18:51:50.885Z,98731.87
2018-11-27T18:54:55.032Z,98735.90
2018-11-27T18:57:59.242Z,98736.34
2018-11-27T19:01:03.469Z,98738.50
2018-11-27T19:04:07.725Z,98737.82
2018-11-27T19:07:11.997Z,98744.50
2018-11-27T19:10:21.577Z,98732.74
2018-11-27T19:13:25.833Z,98731.56
2018-11-27T19:16:30.062Z,98734.80
2018-11-27T19:19:34.207Z,98739.23
2018-11-27T19:22:38.377Z,98743.53
2018-11-27T19:25:42.573Z,98748.16
2018-11-27T19:28:46.847Z,98751.36
2018-11-27T19:31:50.993Z,98756.36
2018-11-27T19:34:55.229Z,98758.00
2018-11-27T19:37:59.453Z,98756.86
2018-11-27T19:41:03.594Z,98754.97
2018-11-27T19:44:07.759Z,98754.30
2018-11-27T19:47:11.945Z,98762.17
2018-11-27T19:50:16.144Z,98761.66
2018-11-27T19:53:20.360Z,98757.37
2018-11-27T19:56:24.581Z,98758.05
2018-11-27T19:59:28.807Z,98753.70
2018-11-27T20:02:32.968Z,98750.67
2018-11-27T20:05:37.153Z,98750.31
2018-11-27T20:08:41.328Z,98753.00
2018-11-27T20:11:45.462Z,98752.69
2018-11-27T20:14:49.673Z,98753.31
2018-11-27T20:17:54.793Z,98756.42
2018-11-27T20:20:58.947Z,98761.80
2018-11-27T20:24:03.140Z,98771.77
2018-11-27T20:27:07.315Z,98764.17
2018-11-27T20:30:14.427Z,98767.98
2018-11-27T20:33:18.578Z,98767.02
2018-11-27T20:36:22.697Z,98781.02
2018-11-27T20:39:31.729Z,98780.53
2018-11-27T20:42:36.052Z,98779.38
2018-11-27T20:45:41.462Z,98786.42
2018-11-27T20:48:45.582Z,98790.36
2018-11-27T20:51:49.706Z,98784.22
2018-11-27T20:54:53.909Z,98778.05
2018-11-27T20:57:59.282Z,98781.23
2018-11-27T21:01:03.432Z,98792.23
2018-11-27T21:04:07.549Z,98787.98
2018-11-27T21:07:11.663Z,98787.47
2018-11-27T21:10:16.047Z,98787.47
2018-11-27T21:13:20.185Z,98792.51
2018-11-27T21:16:24.289Z,98796.56
2018-11-27T21:19:28.401Z,98804.16
2018-11-27T21:22:32.515Z,98807.55
2018-11-27T21:25:36.672Z,98797.07
2018-11-27T21:28:40.841Z,98802.05
2018-11-27T21:31:45.029Z,98800.81
2018-11-27T21:34:49.128Z,98798.99
2018-11-27T21:37:53.245Z,98806.83
2018-11-27T21:40:57.396Z,98801.02
2018-11-27T21:44:01.502Z,98804.73
2018-11-27T21:47:06.409Z,98806.19
2018-11-27T21:50:14.438Z,98811.92
2018-11-27T21:53:18.553Z,98811.00
2018-11-27T21:56:22.657Z,98815.48
2018-11-27T21:59:26.838Z,98811.36
2018-11-27T22:02:30.941Z,98815.40
2018-11-27T22:05:35.060Z,98817.45
2018-11-27T22:08:49.651Z,98815.62
2018-11-27T22:11:53.769Z,98824.09
2018-11-27T22:14:57.885Z,98813.66
2018-11-27T22:18:03.131Z,98814.02
2018-11-27T22:21:07.560Z,98813.25
2018-11-27T22:24:11.724Z,98817.55
2018-11-27T22:27:15.840Z,98818.28
2018-11-27T22:30:20.669Z,98821.53
2018-11-27T22:33:24.780Z,98814.11
2018-11-27T22:36:28.975Z,98813.71
2018-11-27T22:39:33.119Z,98812.23
2018-11-27T22:42:37.266Z,98820.81
2018-11-27T22:45:41.806Z,98811.70
2018-11-27T22:48:46.014Z,98821.91
2018-11-27T22:51:50.244Z,98827.16
2018-11-27T22:54:54.414Z,98830.69
2018-11-27T22:57:58.578Z,98835.75
2018-11-27T23:01:02.717Z,98827.97
2018-11-27T23:04:08.538Z,98828.14
2018-11-27T23:07:16.779Z,98828.56
2018-11-27T23:10:20.934Z,98827.06
2018-11-27T23:13:25.100Z,98832.38
2018-11-27T23:16:29.248Z,98819.73
2018-11-27T23:19:33.401Z,98829.38
2018-11-27T23:22:38.357Z,98824.34
2018-11-27T23:25:42.509Z,98820.59
2018-11-27T23:28:46.661Z,98826.59
2018-11-27T23:31:50.846Z,98823.59
2018-11-27T23:34:55.001Z,98823.53
2018-11-27T23:37:59.141Z,98825.55
2018-11-27T23:41:03.292Z,98826.52
2018-11-27T23:44:07.449Z,98829.05
2018-11-27T23:47:11.627Z,98829.05
2018-11-27T23:50:18.199Z,98824.25
2018-11-27T23:53:22.361Z,98832.34
2018-11-27T23:56:26.501Z,98829.67
2018-11-27T23:59:30.653Z,98830.71
